sensor_id;sensor_type;location;lat;lon;timestamp;pressure;altitude;pressure_sealevel;temperature;humidity
54554;BME280;40450;55.848;-3.572;2023-04-08T00:00:09;100265.67;;;8.22;64.33
54554;BME280;40450;55.848;-3.572;2023-04-08T00:02:38;100267.48;;;7.90;65.94
54554;BME280;40450;55.848;-3.572;2023-04-08T00:05:08;100270.15;;;8.11;65.69
54554;BME280;40450;55.848;-3.572;2023-04-08T00:07:39;100267.47;;;7.80;67.29
54554;BME280;40450;55.848;-3.572;2023-04-08T00:10:09;100269.29;;;8.01;67.60
54554;BME280;40450;55.848;-3.572;2023-04-08T00:12:39;100268.01;;;8.03;67.27
54554;BME280;40450;55.848;-3.572;2023-04-08T00:15:10;100262.74;;;8.09;67.71
54554;BME280;40450;55.848;-3.572;2023-04-08T00:17:40;100261.09;;;7.97;66.78
54554;BME280;40450;55.848;-3.572;2023-04-08T00:20:10;100261.68;;;7.95;67.65
54554;BME280;40450;55.848;-3.572;2023-04-08T00:22:40;100259.37;;;7.96;67.74
54554;BME280;40450;55.848;-3.572;2023-04-08T00:25:11;100256.91;;;7.92;68.62
54554;BME280;40450;55.848;-3.572;2023-04-08T00:27:41;100256.26;;;8.08;67.66
54554;BME280;40450;55.848;-3.572;2023-04-08T00:30:11;100256.66;;;8.10;67.23
54554;BME280;40450;55.848;-3.572;2023-04-08T00:32:42;100255.37;;;8.42;66.01
54554;BME280;40450;55.848;-3.572;2023-04-08T00:35:12;100257.33;;;8.50;66.08
54554;BME280;40450;55.848;-3.572;2023-04-08T00:37:43;100256.05;;;7.93;67.76
54554;BME280;40450;55.848;-3.572;2023-04-08T00:40:13;100255.74;;;7.77;68.02
54554;BME280;40450;55.848;-3.572;2023-04-08T00:42:43;100255.60;;;7.89;67.97
54554;BME280;40450;55.848;-3.572;2023-04-08T00:45:14;100253.33;;;7.64;68.50
54554;BME280;40450;55.848;-3.572;2023-04-08T00:47:49;100252.83;;;7.78;67.13
54554;BME280;40450;55.848;-3.572;2023-04-08T00:50:14;100249.79;;;7.98;67.12
54554;BME280;40450;55.848;-3.572;2023-04-08T00:52:45;100250.22;;;8.10;66.23
54554;BME280;40450;55.848;-3.572;2023-04-08T00:55:15;100254.00;;;8.53;66.04
54554;BME280;40450;55.848;-3.572;2023-04-08T00:57:46;100253.66;;;8.98;65.21
54554;BME280;40450;55.848;-3.572;2023-04-08T01:00:17;100255.69;;;9.17;64.57
54554;BME280;40450;55.848;-3.572;2023-04-08T01:02:55;100255.44;;;9.03;63.98
54554;BME280;40450;55.848;-3.572;2023-04-08T01:05:27;100252.56;;;9.13;63.34
54554;BME280;40450;55.848;-3.572;2023-04-08T01:07:50;100249.98;;;7.91;65.96
54554;BME280;40450;55.848;-3.572;2023-04-08T01:10:20;100247.18;;;7.53;65.74
54554;BME280;40450;55.848;-3.572;2023-04-08T01:12:52;100247.35;;;6.67;70.28
54554;BME280;40450;55.848;-3.572;2023-04-08T01:15:21;100249.84;;;6.53;69.94
54554;BME280;40450;55.848;-3.572;2023-04-08T01:17:52;100254.33;;;6.06;69.06
54554;BME280;40450;55.848;-3.572;2023-04-08T01:20:23;100258.92;;;5.51;71.04
54554;BME280;40450;55.848;-3.572;2023-04-08T01:23:01;100257.22;;;7.51;68.15
54554;BME280;40450;55.848;-3.572;2023-04-08T01:25:25;100258.41;;;7.37;67.66
54554;BME280;40450;55.848;-3.572;2023-04-08T01:27:52;100259.57;;;7.47;67.04
54554;BME280;40450;55.848;-3.572;2023-04-08T01:30:24;100256.41;;;7.84;66.89
54554;BME280;40450;55.848;-3.572;2023-04-08T01:32:54;100255.80;;;7.56;65.83
54554;BME280;40450;55.848;-3.572;2023-04-08T01:35:23;100259.68;;;6.78;66.71
54554;BME280;40450;55.848;-3.572;2023-04-08T01:37:55;100257.77;;;6.06;69.93
54554;BME280;40450;55.848;-3.572;2023-04-08T01:40:24;100256.93;;;6.74;69.31
54554;BME280;40450;55.848;-3.572;2023-04-08T01:43:00;100255.11;;;7.31;68.15
54554;BME280;40450;55.848;-3.572;2023-04-08T01:45:25;100253.84;;;7.82;67.93
54554;BME280;40450;55.848;-3.572;2023-04-08T01:47:56;100257.36;;;8.16;66.76
54554;BME280;40450;55.848;-3.572;2023-04-08T01:50:26;100256.71;;;8.71;66.74
54554;BME280;40450;55.848;-3.572;2023-04-08T01:52:57;100252.48;;;8.90;64.14
54554;BME280;40450;55.848;-3.572;2023-04-08T01:55:27;100249.85;;;8.27;63.72
54554;BME280;40450;55.848;-3.572;2023-04-08T01:57:59;100247.32;;;7.52;65.34
54554;BME280;40450;55.848;-3.572;2023-04-08T02:00:28;100246.08;;;7.53;65.54
54554;BME280;40450;55.848;-3.572;2023-04-08T02:02:58;100248.41;;;8.14;65.17
54554;BME280;40450;55.848;-3.572;2023-04-08T02:05:27;100250.46;;;9.02;64.65
54554;BME280;40450;55.848;-3.572;2023-04-08T02:07:58;100250.94;;;9.50;64.22
54554;BME280;40450;55.848;-3.572;2023-04-08T02:10:28;100249.45;;;9.94;63.32
54554;BME280;40450;55.848;-3.572;2023-04-08T02:12:59;100250.89;;;8.67;62.96
54554;BME280;40450;55.848;-3.572;2023-04-08T02:15:33;100249.24;;;7.75;65.94
54554;BME280;40450;55.848;-3.572;2023-04-08T02:18:06;100250.56;;;7.66;66.29
54554;BME280;40450;55.848;-3.572;2023-04-08T02:20:36;100254.02;;;7.44;66.55
54554;BME280;40450;55.848;-3.572;2023-04-08T02:23:04;100254.37;;;7.65;66.92
54554;BME280;40450;55.848;-3.572;2023-04-08T02:25:34;100257.09;;;5.87;69.50
54554;BME280;40450;55.848;-3.572;2023-04-08T02:28:05;100254.27;;;7.82;67.62
54554;BME280;40450;55.848;-3.572;2023-04-08T02:30:33;100257.51;;;8.89;65.69
54554;BME280;40450;55.848;-3.572;2023-04-08T02:33:03;100264.24;;;9.63;64.18
54554;BME280;40450;55.848;-3.572;2023-04-08T02:35:34;100267.65;;;9.79;63.96
54554;BME280;40450;55.848;-3.572;2023-04-08T02:38:05;100264.07;;;10.25;62.47
54554;BME280;40450;55.848;-3.572;2023-04-08T02:40:34;100270.35;;;9.25;61.99
54554;BME280;40450;55.848;-3.572;2023-04-08T02:43:05;100276.27;;;9.47;62.32
54554;BME280;40450;55.848;-3.572;2023-04-08T02:45:40;100278.66;;;8.80;61.96
54554;BME280;40450;55.848;-3.572;2023-04-08T02:48:05;100277.34;;;8.48;62.83
54554;BME280;40450;55.848;-3.572;2023-04-08T02:50:36;100274.18;;;8.25;62.87
54554;BME280;40450;55.848;-3.572;2023-04-08T02:53:07;100279.72;;;8.16;63.46
54554;BME280;40450;55.848;-3.572;2023-04-08T02:55:36;100278.51;;;7.46;65.14
54554;BME280;40450;55.848;-3.572;2023-04-08T02:58:07;100279.20;;;7.12;66.42
54554;BME280;40450;55.848;-3.572;2023-04-08T03:00:37;100284.61;;;7.38;66.19
54554;BME280;40450;55.848;-3.572;2023-04-08T03:03:08;100291.76;;;4.77;72.07
54554;BME280;40450;55.848;-3.572;2023-04-08T03:05:38;100279.56;;;6.45;69.45
54554;BME280;40450;55.848;-3.572;2023-04-08T03:08:10;100279.12;;;7.68;66.89
54554;BME280;40450;55.848;-3.572;2023-04-08T03:10:40;100284.87;;;7.43;67.08
54554;BME280;40450;55.848;-3.572;2023-04-08T03:13:09;100285.72;;;7.80;67.05
54554;BME280;40450;55.848;-3.572;2023-04-08T03:15:41;100287.80;;;6.44;67.96
54554;BME280;40450;55.848;-3.572;2023-04-08T03:18:10;100286.03;;;7.49;67.23
54554;BME280;40450;55.848;-3.572;2023-04-08T03:20:40;100281.62;;;7.98;65.86
54554;BME280;40450;55.848;-3.572;2023-04-08T03:23:11;100278.32;;;8.35;65.24
54554;BME280;40450;55.848;-3.572;2023-04-08T03:25:41;100279.32;;;8.78;64.41
54554;BME280;40450;55.848;-3.572;2023-04-08T03:28:11;100274.67;;;8.60;64.07
54554;BME280;40450;55.848;-3.572;2023-04-08T03:30:42;100269.51;;;8.87;64.46
54554;BME280;40450;55.848;-3.572;2023-04-08T03:33:12;100267.75;;;8.63;64.01
54554;BME280;40450;55.848;-3.572;2023-04-08T03:35:42;100268.12;;;8.85;63.58
54554;BME280;40450;55.848;-3.572;2023-04-08T03:38:13;100268.34;;;8.95;63.06
54554;BME280;40450;55.848;-3.572;2023-04-08T03:40:43;100268.07;;;9.03;63.60
54554;BME280;40450;55.848;-3.572;2023-04-08T03:43:13;100273.75;;;7.17;65.08
54554;BME280;40450;55.848;-3.572;2023-04-08T03:45:44;100269.46;;;8.46;64.04
54554;BME280;40450;55.848;-3.572;2023-04-08T03:48:14;100271.12;;;8.53;63.62
54554;BME280;40450;55.848;-3.572;2023-04-08T03:50:44;100272.85;;;7.89;65.64
54554;BME280;40450;55.848;-3.572;2023-04-08T03:53:15;100275.53;;;7.84;66.54
54554;BME280;40450;55.848;-3.572;2023-04-08T03:55:45;100275.16;;;8.38;66.12
54554;BME280;40450;55.848;-3.572;2023-04-08T03:58:16;100277.02;;;8.82;64.93
54554;BME280;40450;55.848;-3.572;2023-04-08T04:00:46;100274.87;;;9.06;64.35
54554;BME280;40450;55.848;-3.572;2023-04-08T04:03:17;100272.02;;;9.28;63.87
54554;BME280;40450;55.848;-3.572;2023-04-08T04:05:48;100269.31;;;8.63;63.13
54554;BME280;40450;55.848;-3.572;2023-04-08T04:08:17;100270.65;;;8.03;64.06
54554;BME280;40450;55.848;-3.572;2023-04-08T04:10:47;100270.81;;;7.51;64.67
54554;BME280;40450;55.848;-3.572;2023-04-08T04:13:18;100276.14;;;7.46;65.96
54554;BME280;40450;55.848;-3.572;2023-04-08T04:15:50;100280.43;;;7.08;67.65
54554;BME280;40450;55.848;-3.572;2023-04-08T04:18:18;100280.73;;;5.94;69.90
54554;BME280;40450;55.848;-3.572;2023-04-08T04:20:49;100286.50;;;5.61;70.35
54554;BME280;40450;55.848;-3.572;2023-04-08T04:23:19;100284.91;;;7.55;67.26
54554;BME280;40450;55.848;-3.572;2023-04-08T04:25:50;100283.03;;;8.21;66.09
54554;BME280;40450;55.848;-3.572;2023-04-08T04:28:20;100282.50;;;8.48;65.20
54554;BME280;40450;55.848;-3.572;2023-04-08T04:30:51;100283.96;;;8.15;64.65
54554;BME280;40450;55.848;-3.572;2023-04-08T04:33:25;100282.11;;;8.25;65.00
54554;BME280;40450;55.848;-3.572;2023-04-08T04:35:51;100280.28;;;8.48;65.23
54554;BME280;40450;55.848;-3.572;2023-04-08T04:38:21;100282.82;;;8.57;64.73
54554;BME280;40450;55.848;-3.572;2023-04-08T04:40:51;100284.51;;;8.67;63.88
54554;BME280;40450;55.848;-3.572;2023-04-08T04:43:22;100289.04;;;8.37;63.87
54554;BME280;40450;55.848;-3.572;2023-04-08T04:45:52;100290.33;;;7.52;66.15
54554;BME280;40450;55.848;-3.572;2023-04-08T04:48:23;100287.62;;;7.71;65.46
54554;BME280;40450;55.848;-3.572;2023-04-08T04:50:55;100288.32;;;7.66;65.22
54554;BME280;40450;55.848;-3.572;2023-04-08T04:53:24;100286.80;;;7.57;65.49
54554;BME280;40450;55.848;-3.572;2023-04-08T04:55:54;100285.77;;;7.87;65.39
54554;BME280;40450;55.848;-3.572;2023-04-08T04:58:25;100288.10;;;7.96;63.97
54554;BME280;40450;55.848;-3.572;2023-04-08T05:00:54;100289.78;;;7.52;64.86
54554;BME280;40450;55.848;-3.572;2023-04-08T05:03:26;100283.93;;;7.85;65.06
54554;BME280;40450;55.848;-3.572;2023-04-08T05:05:55;100287.05;;;7.70;64.77
54554;BME280;40450;55.848;-3.572;2023-04-08T05:08:26;100293.59;;;7.26;65.58
54554;BME280;40450;55.848;-3.572;2023-04-08T05:10:56;100295.06;;;6.61;67.72
54554;BME280;40450;55.848;-3.572;2023-04-08T05:13:28;100298.62;;;6.51;68.36
54554;BME280;40450;55.848;-3.572;2023-04-08T05:15:59;100301.86;;;6.82;67.39
54554;BME280;40450;55.848;-3.572;2023-04-08T05:18:29;100308.33;;;6.63;67.80
54554;BME280;40450;55.848;-3.572;2023-04-08T05:21:03;100307.54;;;6.99;67.54
54554;BME280;40450;55.848;-3.572;2023-04-08T05:23:31;100309.03;;;6.18;68.51
54554;BME280;40450;55.848;-3.572;2023-04-08T05:26:01;100309.39;;;6.99;67.02
54554;BME280;40450;55.848;-3.572;2023-04-08T05:28:29;100311.85;;;7.68;66.32
54554;BME280;40450;55.848;-3.572;2023-04-08T05:31:06;100310.49;;;7.92;65.87
54554;BME280;40450;55.848;-3.572;2023-04-08T05:33:30;100315.99;;;7.75;66.27
54554;BME280;40450;55.848;-3.572;2023-04-08T05:36:01;100315.16;;;7.52;65.41
54554;BME280;40450;55.848;-3.572;2023-04-08T05:38:32;100314.48;;;6.98;66.18
54554;BME280;40450;55.848;-3.572;2023-04-08T05:41:04;100318.30;;;7.05;66.72
54554;BME280;40450;55.848;-3.572;2023-04-08T05:43:32;100317.67;;;7.38;66.08
54554;BME280;40450;55.848;-3.572;2023-04-08T05:46:13;100320.92;;;7.19;65.76
54554;BME280;40450;55.848;-3.572;2023-04-08T05:48:36;100322.79;;;7.36;65.60
54554;BME280;40450;55.848;-3.572;2023-04-08T05:51:06;100322.96;;;7.34;65.79
54554;BME280;40450;55.848;-3.572;2023-04-08T05:53:35;100324.60;;;6.60;68.14
54554;BME280;40450;55.848;-3.572;2023-04-08T05:56:06;100321.92;;;7.07;67.78
54554;BME280;40450;55.848;-3.572;2023-04-08T05:58:35;100322.82;;;7.23;68.16
54554;BME280;40450;55.848;-3.572;2023-04-08T06:01:05;100320.66;;;6.64;68.93
54554;BME280;40450;55.848;-3.572;2023-04-08T06:03:36;100326.73;;;7.09;68.46
54554;BME280;40450;55.848;-3.572;2023-04-08T06:06:08;100330.82;;;7.33;68.42
54554;BME280;40450;55.848;-3.572;2023-04-08T06:08:37;100330.47;;;7.57;68.20
54554;BME280;40450;55.848;-3.572;2023-04-08T06:11:07;100333.88;;;7.54;68.00
54554;BME280;40450;55.848;-3.572;2023-04-08T06:13:37;100335.23;;;7.47;67.88
54554;BME280;40450;55.848;-3.572;2023-04-08T06:16:12;100337.77;;;7.66;67.75
54554;BME280;40450;55.848;-3.572;2023-04-08T06:18:38;100331.06;;;8.02;67.86
54554;BME280;40450;55.848;-3.572;2023-04-08T06:21:09;100332.83;;;8.13;67.42
54554;BME280;40450;55.848;-3.572;2023-04-08T06:23:40;100332.70;;;8.67;67.66
54554;BME280;40450;55.848;-3.572;2023-04-08T06:26:09;100334.18;;;8.99;67.26
54554;BME280;40450;55.848;-3.572;2023-04-08T06:28:40;100333.29;;;9.33;67.04
54554;BME280;40450;55.848;-3.572;2023-04-08T06:31:10;100334.44;;;9.65;65.45
54554;BME280;40450;55.848;-3.572;2023-04-08T06:33:40;100336.74;;;9.82;64.23
54554;BME280;40450;55.848;-3.572;2023-04-08T06:36:11;100342.24;;;9.67;63.76
54554;BME280;40450;55.848;-3.572;2023-04-08T06:38:42;100345.66;;;9.88;64.44
54554;BME280;40450;55.848;-3.572;2023-04-08T06:41:12;100347.45;;;9.60;64.69
54554;BME280;40450;55.848;-3.572;2023-04-08T06:43:42;100347.94;;;9.85;65.24
54554;BME280;40450;55.848;-3.572;2023-04-08T06:46:13;100350.96;;;10.07;64.63
54554;BME280;40450;55.848;-3.572;2023-04-08T06:48:43;100354.55;;;10.28;64.87
54554;BME280;40450;55.848;-3.572;2023-04-08T06:51:13;100357.66;;;10.25;63.47
54554;BME280;40450;55.848;-3.572;2023-04-08T06:53:44;100359.31;;;9.65;66.39
54554;BME280;40450;55.848;-3.572;2023-04-08T06:56:14;100362.57;;;10.31;64.55
54554;BME280;40450;55.848;-3.572;2023-04-08T06:58:44;100365.45;;;10.32;64.55
54554;BME280;40450;55.848;-3.572;2023-04-08T07:01:15;100369.39;;;10.12;65.41
54554;BME280;40450;55.848;-3.572;2023-04-08T07:03:45;100375.21;;;10.39;65.34
54554;BME280;40450;55.848;-3.572;2023-04-08T07:06:16;100373.86;;;10.29;64.34
54554;BME280;40450;55.848;-3.572;2023-04-08T07:08:46;100377.64;;;10.86;65.33
54554;BME280;40450;55.848;-3.572;2023-04-08T07:11:16;100376.49;;;11.16;64.91
54554;BME280;40450;55.848;-3.572;2023-04-08T07:13:46;100373.83;;;11.17;64.52
54554;BME280;40450;55.848;-3.572;2023-04-08T07:16:17;100372.12;;;11.36;64.43
54554;BME280;40450;55.848;-3.572;2023-04-08T07:18:47;100370.36;;;11.53;63.92
54554;BME280;40450;55.848;-3.572;2023-04-08T07:21:17;100373.89;;;11.66;63.76
54554;BME280;40450;55.848;-3.572;2023-04-08T07:23:48;100377.70;;;11.73;63.52
54554;BME280;40450;55.848;-3.572;2023-04-08T07:26:18;100383.11;;;11.84;63.79
54554;BME280;40450;55.848;-3.572;2023-04-08T07:28:48;100380.77;;;11.87;63.60
54554;BME280;40450;55.848;-3.572;2023-04-08T07:31:18;100382.48;;;11.63;64.02
54554;BME280;40450;55.848;-3.572;2023-04-08T07:33:48;100379.07;;;11.78;63.91
54554;BME280;40450;55.848;-3.572;2023-04-08T07:36:19;100382.58;;;12.09;63.56
54554;BME280;40450;55.848;-3.572;2023-04-08T07:38:49;100383.12;;;12.22;63.12
54554;BME280;40450;55.848;-3.572;2023-04-08T07:41:20;100386.61;;;11.67;63.53
54554;BME280;40450;55.848;-3.572;2023-04-08T07:43:50;100386.52;;;12.00;63.71
54554;BME280;40450;55.848;-3.572;2023-04-08T07:46:21;100394.91;;;10.43;67.60
54554;BME280;40450;55.848;-3.572;2023-04-08T07:48:51;100390.64;;;11.63;66.00
54554;BME280;40450;55.848;-3.572;2023-04-08T07:51:21;100389.98;;;12.12;65.19
54554;BME280;40450;55.848;-3.572;2023-04-08T07:53:52;100394.48;;;10.79;68.07
54554;BME280;40450;55.848;-3.572;2023-04-08T07:56:23;100387.33;;;11.69;66.21
54554;BME280;40450;55.848;-3.572;2023-04-08T07:58:53;100397.21;;;10.12;70.18
54554;BME280;40450;55.848;-3.572;2023-04-08T08:01:23;100400.33;;;7.65;77.87
54554;BME280;40450;55.848;-3.572;2023-04-08T08:03:54;100406.53;;;5.13;86.33
54554;BME280;40450;55.848;-3.572;2023-04-08T08:06:24;100402.04;;;3.96;91.04
54554;BME280;40450;55.848;-3.572;2023-04-08T08:08:54;100396.27;;;7.06;82.29
54554;BME280;40450;55.848;-3.572;2023-04-08T08:11:25;100397.72;;;6.39;84.54
54554;BME280;40450;55.848;-3.572;2023-04-08T08:13:55;100398.04;;;5.41;87.57
54554;BME280;40450;55.848;-3.572;2023-04-08T08:16:27;100396.74;;;5.26;88.16
54554;BME280;40450;55.848;-3.572;2023-04-08T08:18:56;100390.61;;;6.99;83.77
54554;BME280;40450;55.848;-3.572;2023-04-08T08:21:26;100386.88;;;8.48;81.29
54554;BME280;40450;55.848;-3.572;2023-04-08T08:23:57;100387.20;;;7.61;83.09
54554;BME280;40450;55.848;-3.572;2023-04-08T08:26:27;100387.78;;;6.82;85.51
54554;BME280;40450;55.848;-3.572;2023-04-08T08:28:58;100387.21;;;8.90;81.78
54554;BME280;40450;55.848;-3.572;2023-04-08T08:31:29;100386.26;;;7.92;82.60
54554;BME280;40450;55.848;-3.572;2023-04-08T08:33:59;100388.22;;;9.60;79.63
54554;BME280;40450;55.848;-3.572;2023-04-08T08:36:30;100388.25;;;10.24;77.22
54554;BME280;40450;55.848;-3.572;2023-04-08T08:39:01;100383.29;;;9.88;74.26
54554;BME280;40450;55.848;-3.572;2023-04-08T08:41:33;100378.20;;;10.83;73.23
54554;BME280;40450;55.848;-3.572;2023-04-08T08:44:04;100379.80;;;10.92;72.37
54554;BME280;40450;55.848;-3.572;2023-04-08T08:46:32;100377.95;;;11.80;70.37
54554;BME280;40450;55.848;-3.572;2023-04-08T08:49:02;100378.44;;;12.44;71.30
54554;BME280;40450;55.848;-3.572;2023-04-08T08:51:32;100381.82;;;11.53;68.84
54554;BME280;40450;55.848;-3.572;2023-04-08T08:54:03;100382.04;;;12.15;69.15
54554;BME280;40450;55.848;-3.572;2023-04-08T08:56:33;100383.93;;;11.20;69.78
54554;BME280;40450;55.848;-3.572;2023-04-08T08:59:03;100390.41;;;10.49;72.04
54554;BME280;40450;55.848;-3.572;2023-04-08T09:01:36;100390.83;;;10.12;72.91
54554;BME280;40450;55.848;-3.572;2023-04-08T09:04:09;100391.13;;;9.93;73.73
54554;BME280;40450;55.848;-3.572;2023-04-08T09:06:35;100391.57;;;10.03;73.72
54554;BME280;40450;55.848;-3.572;2023-04-08T09:09:05;100390.96;;;10.17;72.93
54554;BME280;40450;55.848;-3.572;2023-04-08T09:11:36;100395.30;;;10.59;72.88
54554;BME280;40450;55.848;-3.572;2023-04-08T09:16:41;100391.73;;;11.12;71.42
54554;BME280;40450;55.848;-3.572;2023-04-08T09:19:08;100398.35;;;10.66;71.22
54554;BME280;40450;55.848;-3.572;2023-04-08T09:21:37;100396.67;;;10.66;70.10
54554;BME280;40450;55.848;-3.572;2023-04-08T09:24:08;100397.96;;;10.65;70.92
54554;BME280;40450;55.848;-3.572;2023-04-08T09:26:38;100396.32;;;10.88;70.18
54554;BME280;40450;55.848;-3.572;2023-04-08T09:29:08;100395.18;;;11.13;69.30
54554;BME280;40450;55.848;-3.572;2023-04-08T09:31:39;100394.81;;;11.12;68.21
54554;BME280;40450;55.848;-3.572;2023-04-08T09:34:10;100389.95;;;12.07;68.52
54554;BME280;40450;55.848;-3.572;2023-04-08T09:36:39;100393.62;;;11.18;67.82
54554;BME280;40450;55.848;-3.572;2023-04-08T09:39:10;100396.13;;;10.47;69.44
54554;BME280;40450;55.848;-3.572;2023-04-08T09:41:41;100394.61;;;11.03;68.12
54554;BME280;40450;55.848;-3.572;2023-04-08T09:44:11;100389.95;;;11.39;66.59
54554;BME280;40450;55.848;-3.572;2023-04-08T09:46:49;100391.11;;;11.14;65.42
54554;BME280;40450;55.848;-3.572;2023-04-08T09:49:14;100391.86;;;10.96;66.10
54554;BME280;40450;55.848;-3.572;2023-04-08T09:51:46;100394.68;;;10.27;67.81
54554;BME280;40450;55.848;-3.572;2023-04-08T09:54:14;100389.89;;;10.78;67.57
54554;BME280;40450;55.848;-3.572;2023-04-08T09:56:48;100386.71;;;11.58;65.05
54554;BME280;40450;55.848;-3.572;2023-04-08T09:59:14;100390.43;;;11.48;63.54
54554;BME280;40450;55.848;-3.572;2023-04-08T10:01:46;100388.96;;;11.55;61.55
54554;BME280;40450;55.848;-3.572;2023-04-08T10:04:15;100385.00;;;12.02;58.62
54554;BME280;40450;55.848;-3.572;2023-04-08T10:06:45;100383.94;;;12.27;59.30
54554;BME280;40450;55.848;-3.572;2023-04-08T10:09:14;100380.44;;;11.87;56.83
54554;BME280;40450;55.848;-3.572;2023-04-08T10:11:45;100379.93;;;11.88;57.26
54554;BME280;40450;55.848;-3.572;2023-04-08T10:14:15;100379.48;;;11.88;58.35
54554;BME280;40450;55.848;-3.572;2023-04-08T10:16:46;100380.66;;;12.39;58.54
54554;BME280;40450;55.848;-3.572;2023-04-08T10:21:46;100378.35;;;11.53;52.90
54554;BME280;40450;55.848;-3.572;2023-04-08T10:24:17;100380.26;;;11.95;54.06
54554;BME280;40450;55.848;-3.572;2023-04-08T10:26:47;100377.11;;;12.93;50.79
54554;BME280;40450;55.848;-3.572;2023-04-08T10:31:49;100377.38;;;13.68;50.13
54554;BME280;40450;55.848;-3.572;2023-04-08T10:34:20;100379.80;;;13.09;50.48
54554;BME280;40450;55.848;-3.572;2023-04-08T10:36:48;100376.15;;;13.03;50.30
54554;BME280;40450;55.848;-3.572;2023-04-08T10:39:19;100376.44;;;12.26;50.98
54554;BME280;40450;55.848;-3.572;2023-04-08T10:41:50;100378.06;;;12.46;50.97
54554;BME280;40450;55.848;-3.572;2023-04-08T10:44:21;100380.24;;;12.64;51.78
54554;BME280;40450;55.848;-3.572;2023-04-08T10:46:51;100378.48;;;12.55;48.81
54554;BME280;40450;55.848;-3.572;2023-04-08T10:49:20;100374.60;;;13.68;50.21
54554;BME280;40450;55.848;-3.572;2023-04-08T10:51:51;100375.63;;;13.08;48.04
54554;BME280;40450;55.848;-3.572;2023-04-08T10:54:21;100374.99;;;13.18;49.23
54554;BME280;40450;55.848;-3.572;2023-04-08T10:56:52;100368.49;;;13.54;48.42
54554;BME280;40450;55.848;-3.572;2023-04-08T10:59:28;100369.36;;;13.22;47.74
54554;BME280;40450;55.848;-3.572;2023-04-08T11:01:52;100366.63;;;13.20;48.24
54554;BME280;40450;55.848;-3.572;2023-04-08T11:04:24;100366.00;;;12.03;50.29
54554;BME280;40450;55.848;-3.572;2023-04-08T11:06:53;100362.88;;;12.05;51.28
54554;BME280;40450;55.848;-3.572;2023-04-08T11:09:23;100362.21;;;12.97;50.49
54554;BME280;40450;55.848;-3.572;2023-04-08T11:11:54;100360.13;;;13.82;49.26
54554;BME280;40450;55.848;-3.572;2023-04-08T11:14:24;100357.34;;;12.04;51.09
54554;BME280;40450;55.848;-3.572;2023-04-08T11:16:55;100357.44;;;12.50;51.69
54554;BME280;40450;55.848;-3.572;2023-04-08T11:19:25;100353.18;;;13.87;48.03
54554;BME280;40450;55.848;-3.572;2023-04-08T11:21:55;100351.77;;;14.48;47.36
54554;BME280;40450;55.848;-3.572;2023-04-08T11:24:26;100349.67;;;11.29;54.56
54554;BME280;40450;55.848;-3.572;2023-04-08T11:26:56;100357.89;;;9.87;57.77
54554;BME280;40450;55.848;-3.572;2023-04-08T11:29:27;100352.31;;;9.97;58.96
54554;BME280;40450;55.848;-3.572;2023-04-08T11:31:57;100340.97;;;12.50;54.69
54554;BME280;40450;55.848;-3.572;2023-04-08T11:34:27;100341.34;;;13.78;51.26
54554;BME280;40450;55.848;-3.572;2023-04-08T11:36:58;100341.11;;;14.21;50.85
54554;BME280;40450;55.848;-3.572;2023-04-08T11:39:28;100341.42;;;13.89;51.72
54554;BME280;40450;55.848;-3.572;2023-04-08T11:41:58;100341.39;;;14.03;48.54
54554;BME280;40450;55.848;-3.572;2023-04-08T11:44:30;100337.99;;;14.53;49.25
54554;BME280;40450;55.848;-3.572;2023-04-08T11:46:59;100334.59;;;14.91;47.06
54554;BME280;40450;55.848;-3.572;2023-04-08T11:52:00;100333.30;;;14.37;49.31
54554;BME280;40450;55.848;-3.572;2023-04-08T11:54:31;100330.93;;;14.97;48.58
54554;BME280;40450;55.848;-3.572;2023-04-08T11:57:01;100325.77;;;15.63;46.61
54554;BME280;40450;55.848;-3.572;2023-04-08T11:59:31;100329.27;;;15.11;46.64
54554;BME280;40450;55.848;-3.572;2023-04-08T12:02:02;100324.82;;;15.97;45.21
54554;BME280;40450;55.848;-3.572;2023-04-08T12:04:31;100327.87;;;12.73;53.13
54554;BME280;40450;55.848;-3.572;2023-04-08T12:07:02;100330.02;;;14.46;48.87
54554;BME280;40450;55.848;-3.572;2023-04-08T12:09:32;100322.43;;;13.22;51.03
54554;BME280;40450;55.848;-3.572;2023-04-08T12:12:03;100321.75;;;13.47;52.54
54554;BME280;40450;55.848;-3.572;2023-04-08T12:14:33;100321.83;;;14.49;50.05
54554;BME280;40450;55.848;-3.572;2023-04-08T12:17:03;100317.81;;;15.67;48.13
54554;BME280;40450;55.848;-3.572;2023-04-08T12:19:34;100316.71;;;16.42;46.69
54554;BME280;40450;55.848;-3.572;2023-04-08T12:22:04;100315.14;;;15.69;44.91
54554;BME280;40450;55.848;-3.572;2023-04-08T12:24:35;100316.32;;;15.73;44.49
54554;BME280;40450;55.848;-3.572;2023-04-08T12:27:05;100313.33;;;16.46;44.21
54554;BME280;40450;55.848;-3.572;2023-04-08T12:29:35;100305.91;;;16.69;41.82
54554;BME280;40450;55.848;-3.572;2023-04-08T12:32:06;100307.04;;;15.57;43.00
54554;BME280;40450;55.848;-3.572;2023-04-08T12:34:36;100308.81;;;13.11;48.68
54554;BME280;40450;55.848;-3.572;2023-04-08T12:37:08;100313.84;;;11.55;60.81
54554;BME280;40450;55.848;-3.572;2023-04-08T12:39:37;100309.60;;;14.00;55.92
54554;BME280;40450;55.848;-3.572;2023-04-08T12:42:07;100308.30;;;12.61;59.59
54554;BME280;40450;55.848;-3.572;2023-04-08T12:44:38;100304.11;;;13.17;58.25
54554;BME280;40450;55.848;-3.572;2023-04-08T12:47:08;100304.21;;;14.72;55.16
54554;BME280;40450;55.848;-3.572;2023-04-08T12:49:38;100306.96;;;12.04;63.62
54554;BME280;40450;55.848;-3.572;2023-04-08T12:52:09;100318.75;;;10.05;71.28
54554;BME280;40450;55.848;-3.572;2023-04-08T12:54:39;100303.22;;;13.00;62.93
54554;BME280;40450;55.848;-3.572;2023-04-08T12:57:09;100302.74;;;13.31;63.17
54554;BME280;40450;55.848;-3.572;2023-04-08T12:59:39;100305.62;;;9.62;72.83
54554;BME280;40450;55.848;-3.572;2023-04-08T13:02:10;100296.54;;;11.48;66.67
54554;BME280;40450;55.848;-3.572;2023-04-08T13:04:40;100301.55;;;10.23;70.35
54554;BME280;40450;55.848;-3.572;2023-04-08T13:07:10;100307.79;;;9.71;74.92
54554;BME280;40450;55.848;-3.572;2023-04-08T13:09:41;100301.49;;;9.65;73.72